Time;durP1;ratioP1;P1;durP2;ratioP2;P2;SDS_P1;SDS_P2;PMS_P1;PMS_P2;Temp;Humidity;BMP_temperature;BMP_pressure;BME280_temperature;BME280_humidity;BME280_pressure;Samples;Min_cycle;Max_cycle;Signal;HPM_P1;HPM_P2
2021/01/08 00:01:40;;;;;;;5.13;2.20;;;1.80;81.80;;;;;;5074426;22;20305;-66
2021/01/08 00:04:06;;;;;;;3.40;1.60;;;;;;;;;;5086500;22;20232;-68
2021/01/08 00:06:32;;;;;;;6.20;3.27;;;1.80;81.80;;;;;;5070713;22;20236;-66
2021/01/08 00:08:58;;;;;;;3.60;1.83;;;1.80;81.30;;;;;;5057161;23;20257;-65
2021/01/08 00:11:24;;;;;;;3.60;1.67;;;1.80;81.20;;;;;;5067892;22;20233;-65
2021/01/08 00:13:50;;;;;;;5.63;3.53;;;1.80;81.80;;;;;;5067319;28;20186;-66
2021/01/08 00:16:16;;;;;;;4.97;2.57;;;1.80;81.80;;;;;;5073662;22;20662;-66
2021/01/08 00:18:44;;;;;;;3.10;1.53;;;1.80;81.70;;;;;;5066178;28;20221;-65
2021/01/08 00:21:09;;;;;;;4.03;2.10;;;1.80;81.80;;;;;;5083046;22;20587;-65
2021/01/08 00:23:35;;;;;;;4.17;2.03;;;1.80;81.50;;;;;;5074814;22;20267;-65
2021/01/08 00:26:01;;;;;;;2.13;1.03;;;1.80;80.40;;;;;;5067144;28;20312;-66
2021/01/08 00:28:26;;;;;;;2.20;0.93;;;1.80;80.60;;;;;;5067855;23;20256;-65
2021/01/08 00:30:52;;;;;;;3.63;2.27;;;1.80;81.30;;;;;;5047348;28;20194;-66
2021/01/08 00:33:18;;;;;;;3.97;1.90;;;1.80;80.70;;;;;;5060664;23;20234;-66
2021/01/08 00:35:43;;;;;;;3.03;1.43;;;1.80;80.40;;;;;;5065263;28;20246;-66
2021/01/08 00:38:09;;;;;;;2.90;2.03;;;1.80;80.70;;;;;;5059706;23;20237;-66
2021/01/08 00:40:35;;;;;;;6.07;3.10;;;1.80;80.80;;;;;;5065801;28;20244;-66
2021/01/08 00:43:01;;;;;;;6.23;2.73;;;1.80;80.60;;;;;;5071243;22;20225;-67
2021/01/08 00:45:26;;;;;;;8.10;3.20;;;1.80;80.70;;;;;;5078443;23;20236;-66
2021/01/08 00:47:52;;;;;;;4.77;2.50;;;;;;;;;;5060964;22;20237;-66
2021/01/08 00:50:18;;;;;;;6.33;3.37;;;1.80;80.70;;;;;;5040213;28;20222;-66
2021/01/08 00:52:44;;;;;;;7.53;2.67;;;1.80;80.00;;;;;;5053785;22;20229;-66
2021/01/08 00:55:10;;;;;;;3.53;2.17;;;1.80;79.90;;;;;;5064217;22;20238;-66
2021/01/08 00:57:36;;;;;;;5.00;1.33;;;;;;;;;;5077369;22;20230;-66
2021/01/08 01:00:04;;;;;;;5.30;2.27;;;1.80;79.70;;;;;;5063666;28;20829;-66
2021/01/08 01:02:31;;;;;;;5.70;2.63;;;1.80;79.80;;;;;;5090101;23;20248;-66
2021/01/08 01:04:57;;;;;;;5.23;2.57;;;;;;;;;;5081226;28;20213;-66
2021/01/08 01:07:23;;;;;;;6.73;3.23;;;;;;;;;;5077186;22;20244;-66
2021/01/08 01:09:49;;;;;;;5.77;2.67;;;;;;;;;;5070976;28;20213;-66
2021/01/08 01:12:15;;;;;;;5.10;2.53;;;;;;;;;;5067660;28;20205;-66
2021/01/08 01:14:41;;;;;;;2.30;1.10;;;;;;;;;;5090822;22;20285;-66
2021/01/08 01:17:07;;;;;;;6.60;3.20;;;1.80;80.10;;;;;;5067978;23;20629;-66
2021/01/08 01:19:33;;;;;;;3.20;0.97;;;;;;;;;;5063402;28;20197;-66
2021/01/08 01:21:59;;;;;;;17.93;3.50;;;;;;;;;;5075152;22;20190;-66
2021/01/08 01:24:25;;;;;;;4.57;2.40;;;;;;;;;;5043695;28;20294;-66
2021/01/08 01:26:55;;;;;;;4.77;2.37;;;1.70;81.60;;;;;;5046590;28;20563;-66
2021/01/08 01:29:24;;;;;;;4.60;1.73;;;1.70;81.70;;;;;;5078398;22;20275;-65
2021/01/08 01:31:51;;;;;;;2.73;1.57;;;1.70;82.60;;;;;;5064063;28;20189;-66
2021/01/08 01:34:16;;;;;;;5.77;2.13;;;1.60;83.90;;;;;;5076395;23;20338;-66
2021/01/08 01:36:42;;;;;;;2.07;1.07;;;;;;;;;;5079261;22;20691;-66
2021/01/08 01:39:08;;;;;;;3.33;1.73;;;1.60;82.90;;;;;;5082602;23;20323;-66
2021/01/08 01:41:34;;;;;;;3.63;2.23;;;1.70;83.70;;;;;;5078535;22;20616;-66
2021/01/08 01:44:00;;;;;;;4.30;1.97;;;;;;;;;;5058475;22;20586;-66
2021/01/08 01:46:26;;;;;;;5.20;2.67;;;1.60;83.30;;;;;;5047321;28;20186;-66
2021/01/08 01:48:53;;;;;;;5.13;3.30;;;1.60;84.40;;;;;;5085493;23;20629;-66
2021/01/08 01:51:20;;;;;;;6.40;3.07;;;1.60;84.70;;;;;;5082333;22;20279;-66
2021/01/08 01:53:47;;;;;;;5.50;2.77;;;1.60;84.30;;;;;;5069227;28;20185;-67
2021/01/08 01:56:12;;;;;;;4.00;2.60;;;1.60;84.70;;;;;;5074419;23;20244;-66
2021/01/08 01:58:38;;;;;;;13.90;3.03;;;1.60;83.80;;;;;;5088412;23;20840;-66
2021/01/08 02:01:04;;;;;;;4.80;3.03;;;1.60;84.60;;;;;;5082508;22;20282;-66
2021/01/08 02:03:35;;;;;;;8.00;3.17;;;1.60;84.10;;;;;;5082107;22;20224;-66
2021/01/08 02:06:07;;;;;;;5.97;2.63;;;1.60;85.30;;;;;;5084360;22;20241;-66
2021/01/08 02:08:33;;;;;;;4.23;1.60;;;;;;;;;;5091777;22;20305;-66
2021/01/08 02:11:03;;;;;;;2.37;1.30;;;1.80;85.80;;;;;;5111087;22;20228;-66
2021/01/08 02:14:02;;;;;;;4.80;2.73;;;1.50;86.60;;;;;;5100641;23;20233;-68
2021/01/08 02:16:29;;;;;;;4.33;2.77;;;1.30;87.70;;;;;;5090624;22;20955;-65
2021/01/08 02:18:57;;;;;;;8.60;2.57;;;1.40;89.20;;;;;;5091534;28;20527;-66
2021/01/08 02:21:56;;;;;;;3.87;1.47;;;1.40;88.90;;;;;;5080725;22;20229;-66
2021/01/08 02:24:30;;;;;;;8.40;3.03;;;1.30;90.00;;;;;;5089284;23;20244;-66
2021/01/08 02:26:56;;;;;;;5.97;3.87;;;1.30;90.10;;;;;;5089293;28;21636;-66
2021/01/08 02:29:22;;;;;;;4.53;1.90;;;1.30;90.40;;;;;;5075516;23;20267;-65
2021/01/08 02:31:48;;;;;;;3.47;1.80;;;1.40;90.60;;;;;;5086829;23;20328;-66
2021/01/08 02:34:14;;;;;;;4.87;3.50;;;;;;;;;;5087527;28;20276;-66
2021/01/08 02:36:43;;;;;;;3.27;2.00;;;1.30;91.00;;;;;;5088410;28;20184;-65
2021/01/08 02:39:10;;;;;;;4.57;2.17;;;1.30;91.40;;;;;;5089831;28;20181;-65
2021/01/08 02:41:37;;;;;;;4.10;1.33;;;1.20;91.20;;;;;;5109198;22;20330;-66
2021/01/08 02:44:03;;;;;;;9.53;2.47;;;1.30;91.40;;;;;;5082373;22;20626;-66
2021/01/08 02:46:29;;;;;;;4.47;2.77;;;1.20;91.40;;;;;;5049573;28;20235;-66
2021/01/08 02:48:55;;;;;;;3.33;1.43;;;1.20;91.70;;;;;;5093919;22;20228;-66
2021/01/08 02:51:21;;;;;;;3.97;1.93;;;;;;;;;;5088620;28;20185;-65
2021/01/08 02:53:48;;;;;;;5.50;2.33;;;1.30;92.00;;;;;;5087490;28;20181;-65
2021/01/08 02:56:19;;;;;;;4.43;2.53;;;1.20;92.00;;;;;;5093585;22;20312;-66
2021/01/08 02:58:46;;;;;;;3.47;1.97;;;1.20;91.80;;;;;;5087234;28;20193;-66
2021/01/08 03:01:12;;;;;;;5.20;3.40;;;;;;;;;;5110135;22;20232;-66
2021/01/08 03:03:38;;;;;;;10.03;3.77;;;1.20;92.10;;;;;;5109066;28;20199;-66
2021/01/08 03:06:05;;;;;;;5.60;2.73;;;1.20;92.20;;;;;;5079035;22;20260;-66
2021/01/08 03:08:31;;;;;;;8.83;2.13;;;1.20;92.30;;;;;;5063839;28;20226;-66
2021/01/08 03:11:00;;;;;;;4.37;2.70;;;1.20;92.50;;;;;;5062511;23;20276;-66
2021/01/08 03:13:30;;;;;;;8.90;4.30;;;1.10;92.50;;;;;;5074126;23;20236;-66
2021/01/08 03:15:55;;;;;;;6.43;2.60;;;1.10;92.70;;;;;;5064292;28;20230;-66
2021/01/08 03:18:21;;;;;;;4.87;3.07;;;1.10;92.80;;;;;;5074982;22;20260;-66
2021/01/08 03:20:47;;;;;;;3.93;2.60;;;;;;;;;;5085301;23;20657;-66
2021/01/08 03:23:12;;;;;;;5.47;2.17;;;1.20;92.40;;;;;;5070340;28;20556;-66
2021/01/08 03:25:38;;;;;;;4.77;3.13;;;1.20;92.30;;;;;;5089149;28;20181;-66
2021/01/08 03:28:04;;;;;;;4.67;3.27;;;1.20;92.30;;;;;;5095579;22;20232;-66
2021/01/08 03:30:29;;;;;;;2.87;1.63;;;1.20;92.00;;;;;;5089057;28;20225;-66
2021/01/08 03:32:55;;;;;;;5.03;2.10;;;1.20;92.10;;;;;;5078523;22;20609;-67
2021/01/08 03:35:21;;;;;;;4.77;2.53;;;;;;;;;;5087548;22;20229;-66
2021/01/08 03:37:46;;;;;;;7.13;3.50;;;1.20;91.90;;;;;;5089127;28;20372;-66
2021/01/08 03:40:12;;;;;;;4.90;2.47;;;1.20;92.00;;;;;;5088926;23;20786;-66
2021/01/08 03:42:38;;;;;;;3.80;2.47;;;1.20;91.90;;;;;;5092490;23;20593;-66
2021/01/08 03:45:05;;;;;;;4.53;1.83;;;1.20;91.60;;;;;;5089915;22;20231;-66
2021/01/08 03:47:30;;;;;;;6.77;3.07;;;1.20;91.90;;;;;;5083155;28;20212;-66
2021/01/08 03:49:56;;;;;;;3.73;1.53;;;;;;;;;;5077160;22;20703;-66
2021/01/08 03:52:22;;;;;;;6.37;3.23;;;1.20;91.90;;;;;;5066808;28;20236;-66
2021/01/08 03:54:47;;;;;;;5.87;4.37;;;1.20;92.00;;;;;;5068587;28;20529;-66
2021/01/08 03:57:13;;;;;;;4.30;2.37;;;1.20;92.00;;;;;;5084784;22;20248;-66
2021/01/08 03:59:38;;;;;;;10.23;4.10;;;1.20;92.00;;;;;;5085946;28;20628;-66
2021/01/08 04:02:04;;;;;;;8.73;2.60;;;1.20;92.00;;;;;;5094666;22;20244;-66
2021/01/08 04:04:30;;;;;;;6.80;3.73;;;1.20;92.10;;;;;;5079092;28;20710;-67
2021/01/08 04:06:56;;;;;;;6.90;3.50;;;;;;;;;;5067598;28;20204;-67
2021/01/08 04:09:21;;;;;;;10.37;4.00;;;1.30;92.10;;;;;;5077080;22;20222;-67
2021/01/08 04:11:48;;;;;;;7.20;4.10;;;1.30;92.00;;;;;;5067851;28;20731;-67
2021/01/08 04:14:14;;;;;;;9.07;4.00;;;1.30;92.00;;;;;;5070612;22;20227;-67
2021/01/08 04:16:41;;;;;;;6.10;3.30;;;1.30;92.00;;;;;;5068526;28;20256;-67
2021/01/08 04:19:11;;;;;;;6.10;4.10;;;1.30;91.90;;;;;;5089083;23;20236;-67
2021/01/08 04:21:37;;;;;;;7.23;3.57;;;1.30;92.00;;;;;;5079021;22;20696;-67
2021/01/08 04:24:04;;;;;;;6.97;4.00;;;1.30;91.90;;;;;;5077316;23;20323;-67
2021/01/08 04:26:30;;;;;;;7.00;3.97;;;1.30;91.90;;;;;;5074784;22;20233;-67
2021/01/08 04:28:56;;;;;;;7.47;4.97;;;1.30;91.80;;;;;;5087643;23;20229;-67
2021/01/08 04:31:22;;;;;;;4.60;3.10;;;1.30;91.80;;;;;;5088563;28;20611;-67
2021/01/08 04:33:48;;;;;;;4.73;2.30;;;1.30;91.70;;;;;;5091475;22;20233;-67
2021/01/08 04:36:14;;;;;;;5.07;3.13;;;1.40;91.90;;;;;;5088403;28;20725;-67
2021/01/08 04:38:40;;;;;;;11.57;5.27;;;1.40;91.60;;;;;;5078264;22;20225;-67
2021/01/08 04:41:07;;;;;;;5.17;2.60;;;;;;;;;;5090231;22;20252;-67
2021/01/08 04:43:34;;;;;;;7.13;4.17;;;1.40;91.40;;;;;;5064538;28;20296;-67
2021/01/08 04:46:19;;;;;;;7.43;4.70;;;1.40;91.50;;;;;;5071707;22;20233;-67
2021/01/08 04:48:45;;;;;;;5.50;2.80;;;1.40;91.70;;;;;;5090811;22;20273;-67
2021/01/08 04:51:12;;;;;;;6.33;2.93;;;1.40;91.90;;;;;;5086006;28;20191;-67
2021/01/08 04:53:38;;;;;;;8.07;5.23;;;;;;;;;;5061193;22;20521;-67
2021/01/08 04:56:07;;;;;;;4.50;1.33;;;1.40;91.70;;;;;;5045434;28;20213;-67
2021/01/08 04:58:34;;;;;;;4.80;2.60;;;1.50;91.80;;;;;;5064076;22;20240;-67
2021/01/08 05:01:01;;;;;;;6.00;3.30;;;1.50;91.80;;;;;;5079494;22;20229;-67
2021/01/08 05:03:28;;;;;;;6.80;3.63;;;1.50;91.80;;;;;;5066644;28;20190;-67
2021/01/08 05:05:54;;;;;;;5.03;3.23;;;1.50;92.00;;;;;;5050963;22;626188;-66
2021/01/08 05:08:20;;;;;;;5.60;2.17;;;1.40;92.40;;;;;;5069415;28;20196;-66
2021/01/08 05:10:45;;;;;;;6.00;3.40;;;1.40;92.70;;;;;;5092878;22;20683;-67
2021/01/08 05:13:12;;;;;;;3.67;1.90;;;;;;;;;;5084708;28;20578;-67
2021/01/08 05:15:39;;;;;;;5.77;3.47;;;1.30;93.10;;;;;;5089908;28;20204;-66
2021/01/08 05:18:05;;;;;;;5.30;2.53;;;1.30;93.10;;;;;;5089869;28;20629;-66
2021/01/08 05:20:31;;;;;;;11.87;3.70;;;1.30;93.20;;;;;;5083558;22;20241;-67
2021/01/08 05:22:57;;;;;;;5.27;2.53;;;;;;;;;;5061645;28;20228;-67
2021/01/08 05:25:23;;;;;;;3.23;1.07;;;1.30;93.80;;;;;;5091101;23;20241;-67
2021/01/08 05:27:49;;;;;;;6.10;3.17;;;1.20;93.90;;;;;;5099595;28;20195;-66
2021/01/08 05:30:17;;;;;;;8.10;3.93;;;1.30;94.10;;;;;;5077091;22;20652;-66
2021/01/08 05:32:44;;;;;;;8.63;3.93;;;1.20;94.40;;;;;;5067965;22;20577;-66
2021/01/08 05:35:16;;;;;;;5.60;2.63;;;1.20;94.60;;;;;;5056741;28;20236;-66
2021/01/08 05:37:46;;;;;;;7.77;3.97;;;1.10;94.90;;;;;;5060545;28;20290;-67
2021/01/08 05:40:12;;;;;;;5.37;3.27;;;1.10;95.60;;;;;;5084289;22;20717;-66
2021/01/08 05:43:01;;;;;;;3.43;2.07;;;1.10;96.30;;;;;;5081290;22;20221;-67
2021/01/08 05:45:29;;;;;;;6.43;3.97;;;1.10;96.30;;;;;;5068188;28;20198;-66
2021/01/08 05:48:00;;;;;;;4.90;2.97;;;1.00;96.40;;;;;;5078067;22;20225;-66
2021/01/08 05:50:28;;;;;;;7.10;3.20;;;1.00;96.40;;;;;;5078003;28;20232;-66
2021/01/08 05:53:03;;;;;;;6.23;2.80;;;1.10;96.50;;;;;;5080098;22;20236;-66
2021/01/08 05:55:29;;;;;;;5.37;3.30;;;;;;;;;;5069011;28;20181;-66
2021/01/08 05:57:55;;;;;;;4.93;2.10;;;1.00;96.70;;;;;;5064836;28;20177;-66
2021/01/08 06:00:21;;;;;;;3.80;2.90;;;1.00;96.80;;;;;;5071802;28;20190;-66
2021/01/08 06:02:51;;;;;;;4.67;2.67;;;1.00;96.90;;;;;;5071243;28;20190;-66
2021/01/08 06:05:19;;;;;;;5.93;3.73;;;1.00;97.00;;;;;;5049085;28;20217;-66
2021/01/08 06:07:49;;;;;;;4.10;3.10;;;1.00;97.10;;;;;;5049253;28;20194;-66
2021/01/08 06:10:18;;;;;;;6.10;3.17;;;1.00;97.20;;;;;;5040074;28;20302;-67
2021/01/08 06:12:46;;;;;;;5.37;2.30;;;1.00;97.20;;;;;;5082987;22;20233;-67
2021/01/08 06:15:14;;;;;;;5.40;3.17;;;1.10;97.30;;;;;;5083597;28;20184;-67
2021/01/08 06:17:39;;;;;;;5.10;2.53;;;1.10;97.40;;;;;;5093553;22;20584;-68
2021/01/08 06:20:06;;;;;;;5.33;2.70;;;1.10;97.60;;;;;;5085783;28;20195;-68
2021/01/08 06:22:40;;;;;;;7.07;2.83;;;1.10;97.70;;;;;;5080847;22;20305;-68
2021/01/08 06:25:07;;;;;;;5.87;1.67;;;1.00;97.60;;;;;;5072421;22;20550;-68
2021/01/08 06:27:34;;;;;;;4.43;1.37;;;1.00;97.60;;;;;;5071241;22;20238;-68
2021/01/08 06:30:03;;;;;;;5.27;1.90;;;1.10;97.70;;;;;;5067863;23;20640;-68
2021/01/08 06:32:30;;;;;;;6.17;3.03;;;1.10;97.70;;;;;;5071909;28;20651;-68
2021/01/08 06:35:08;;;;;;;9.60;4.97;;;1.10;97.80;;;;;;5071188;22;20280;-68
2021/01/08 06:37:41;;;;;;;1.93;1.23;;;1.10;97.80;;;;;;5089485;22;20258;-69
2021/01/08 06:40:09;;;;;;;9.07;3.87;;;1.10;97.80;;;;;;5076418;22;20576;-68
2021/01/08 06:42:48;;;;;;;7.40;2.90;;;1.10;97.80;;;;;;5085695;22;20393;-68
2021/01/08 06:45:17;;;;;;;5.77;3.27;;;1.20;97.80;;;;;;5068268;22;20236;-68
2021/01/08 06:47:49;;;;;;;4.03;2.07;;;1.20;97.90;;;;;;5093492;23;20265;-68
2021/01/08 06:50:20;;;;;;;3.93;2.13;;;1.10;97.80;;;;;;5089197;28;20222;-67
2021/01/08 06:52:49;;;;;;;9.43;4.67;;;1.20;97.90;;;;;;5093398;22;20357;-66
2021/01/08 06:55:17;;;;;;;6.47;1.77;;;1.20;97.90;;;;;;5080476;22;20320;-67
2021/01/08 06:57:54;;;;;;;7.23;4.43;;;1.20;98.00;;;;;;5042337;28;20183;-68
2021/01/08 07:00:29;;;;;;;5.43;2.77;;;1.20;98.00;;;;;;5070443;23;20221;-68
2021/01/08 07:03:03;;;;;;;3.33;1.67;;;1.20;98.00;;;;;;5048452;23;20233;-68
2021/01/08 07:05:30;;;;;;;8.00;3.87;;;1.30;98.10;;;;;;5070712;23;20240;-68
2021/01/08 07:07:56;;;;;;;4.40;2.33;;;1.30;98.10;;;;;;5090878;22;20229;-68
2021/01/08 07:10:23;;;;;;;5.97;2.67;;;;;;;;;;5094007;22;20232;-68
2021/01/08 07:12:54;;;;;;;9.83;4.87;;;1.40;98.20;;;;;;5077890;22;20229;-68
2021/01/08 07:15:20;;;;;;;5.33;2.97;;;;;;;;;;5079903;28;20186;-68
2021/01/08 07:17:51;;;;;;;5.40;3.00;;;1.40;98.20;;;;;;5056899;22;20226;-68
2021/01/08 07:20:17;;;;;;;4.90;2.83;;;;;;;;;;5066075;22;20256;-68
2021/01/08 07:22:43;;;;;;;7.53;3.67;;;;;;;;;;5067118;28;20323;-69
2021/01/08 07:25:13;;;;;;;4.83;2.50;;;1.40;98.10;;;;;;5073657;22;20260;-68
2021/01/08 07:27:43;;;;;;;7.77;3.30;;;1.50;98.30;;;;;;5085546;23;20314;-68
2021/01/08 07:30:09;;;;;;;7.07;3.87;;;1.50;98.20;;;;;;5086525;28;20220;-68
2021/01/08 07:32:39;;;;;;;3.43;2.10;;;1.50;98.00;;;;;;5095933;22;20233;-69
2021/01/08 07:35:26;;;;;;;4.97;2.93;;;1.50;98.00;;;;;;5088049;28;20200;-68
2021/01/08 07:38:10;;;;;;;6.43;2.50;;;1.50;97.80;;;;;;5077947;22;20238;-67
2021/01/08 07:40:39;;;;;;;5.80;3.53;;;;;;;;;;5062061;22;20229;-67
2021/01/08 07:43:09;;;;;;;7.10;4.03;;;1.60;98.00;;;;;;5060801;28;20265;-67
2021/01/08 07:45:53;;;;;;;4.33;1.67;;;1.60;97.90;;;;;;5062659;22;20675;-67
2021/01/08 07:48:27;;;;;;;4.33;1.50;;;1.60;97.70;;;;;;5082644;23;20674;-67
2021/01/08 07:50:59;;;;;;;4.60;2.90;;;1.70;97.50;;;;;;5076579;22;20225;-68
2021/01/08 07:53:47;;;;;;;2.80;1.17;;;1.70;97.20;;;;;;5091295;22;20750;-67
2021/01/08 07:56:15;;;;;;;3.73;1.77;;;1.80;96.70;;;;;;5062020;22;20733;-68
2021/01/08 07:58:42;;;;;;;3.60;2.63;;;1.80;96.80;;;;;;5056130;28;20193;-68
2021/01/08 08:01:09;;;;;;;2.67;1.37;;;1.80;97.20;;;;;;5065655;22;20224;-68
2021/01/08 08:03:36;;;;;;;6.13;3.07;;;1.80;97.20;;;;;;5082996;28;20676;-67
2021/01/08 08:06:03;;;;;;;4.17;2.33;;;1.80;96.70;;;;;;5070472;22;20586;-67
2021/01/08 08:08:29;;;;;;;7.27;3.40;;;1.90;97.00;;;;;;5070016;22;20315;-68
2021/01/08 08:11:14;;;;;;;8.07;4.93;;;1.90;96.80;;;;;;5064755;28;20557;-67
2021/01/08 08:13:40;;;;;;;4.80;3.03;;;1.90;96.30;;;;;;5065185;28;20570;-68
2021/01/08 08:16:06;;;;;;;4.83;3.53;;;2.00;96.60;;;;;;5080886;23;20260;-68
2021/01/08 08:18:32;;;;;;;4.63;2.50;;;;;;;;;;5072677;22;20233;-68
2021/01/08 08:21:09;;;;;;;6.73;4.07;;;2.00;95.60;;;;;;5052277;23;20673;-67
2021/01/08 08:23:35;;;;;;;5.07;2.80;;;;;;;;;;5058643;23;20615;-67
2021/01/08 08:26:01;;;;;;;7.20;4.33;;;;;;;;;;5087346;23;20613;-67
2021/01/08 08:28:27;;;;;;;6.77;4.60;;;;;;;;;;5064229;28;20219;-68
2021/01/08 08:30:53;;;;;;;6.73;4.50;;;2.20;95.20;;;;;;5102621;23;20224;-68
2021/01/08 08:33:21;;;;;;;3.93;2.67;;;2.20;94.60;;;;;;5123110;22;20232;-68
2021/01/08 08:35:48;;;;;;;5.47;2.93;;;2.20;93.70;;;;;;5112559;28;20233;-68
2021/01/08 08:38:14;;;;;;;5.13;3.33;;;;;;;;;;5088970;23;20225;-68
2021/01/08 08:40:39;;;;;;;5.60;3.17;;;2.20;94.10;;;;;;5375185;22;20233;-68
2021/01/08 08:43:06;;;;;;;4.40;2.00;;;;;;;;;;5099229;22;20309;-68
2021/01/08 08:45:32;;;;;;;3.00;1.50;;;2.20;93.60;;;;;;5122322;22;20949;-66
2021/01/08 08:48:05;;;;;;;6.00;3.00;;;2.20;93.50;;;;;;5088594;28;20200;-66
2021/01/08 08:50:32;;;;;;;7.70;4.40;;;2.20;93.80;;;;;;5076418;22;20287;-65
2021/01/08 08:52:58;;;;;;;5.57;3.30;;;2.20;93.50;;;;;;5092854;23;20248;-65
2021/01/08 08:55:31;;;;;;;5.57;2.97;;;2.20;93.80;;;;;;5083736;28;20616;-66
2021/01/08 08:58:05;;;;;;;3.50;1.63;;;2.20;93.40;;;;;;5078690;22;20221;-66
2021/01/08 09:00:35;;;;;;;3.37;1.40;;;2.20;93.50;;;;;;5057484;28;20205;-66
2021/01/08 09:03:13;;;;;;;11.37;2.23;;;2.20;93.00;;;;;;5071850;22;20324;-66
2021/01/08 09:05:40;;;;;;;8.67;3.80;;;2.20;93.50;;;;;;5044404;28;20207;-64
2021/01/08 09:08:12;;;;;;;3.00;1.43;;;2.30;93.40;;;;;;5047913;28;20648;-66
2021/01/08 09:10:47;;;;;;;6.17;3.13;;;2.30;93.20;;;;;;5049054;28;20219;-66
2021/01/08 09:13:22;;;;;;;3.03;1.77;;;2.40;92.20;;;;;;5051446;23;20261;-67
2021/01/08 09:15:53;;;;;;;4.47;3.30;;;2.40;92.80;;;;;;5063266;28;20289;-67
2021/01/08 09:18:37;;;;;;;2.80;1.40;;;2.50;91.70;;;;;;5052758;23;20272;-67
2021/01/08 09:21:33;;;;;;;3.57;1.17;;;2.50;91.50;;;;;;5044524;28;20209;-67
2021/01/08 09:24:00;;;;;;;6.80;3.53;;;2.50;91.80;;;;;;5069873;22;20586;-67
2021/01/08 09:26:29;;;;;;;3.40;1.73;;;2.60;91.30;;;;;;5089393;23;20232;-64
2021/01/08 09:28:55;;;;;;;10.67;4.13;;;;;;;;;;5093279;22;20248;-64
2021/01/08 09:31:43;;;;;;;7.40;3.20;;;2.60;91.40;;;;;;5087450;28;20181;-64
2021/01/08 09:34:09;;;;;;;4.97;3.13;;;;;;;;;;5113803;22;20315;-67
2021/01/08 09:36:37;;;;;;;6.00;3.00;;;2.60;91.30;;;;;;5105910;22;20225;-64
2021/01/08 09:39:08;;;;;;;5.47;2.70;;;2.60;90.20;;;;;;5080528;22;20312;-67
2021/01/08 09:41:35;;;;;;;7.70;4.40;;;2.60;90.70;;;;;;5080899;28;20655;-67
2021/01/08 09:44:04;;;;;;;5.07;3.23;;;2.60;90.20;;;;;;5091714;22;20233;-66
2021/01/08 09:46:30;;;;;;;5.43;3.20;;;2.70;89.90;;;;;;5110452;22;20289;-64
2021/01/08 09:49:05;;;;;;;6.93;3.43;;;2.70;90.20;;;;;;5106545;28;20274;-62
2021/01/08 09:51:31;;;;;;;5.93;3.13;;;;;;;;;;5109936;28;20184;-64
2021/01/08 09:53:57;;;;;;;4.70;2.97;;;2.70;90.20;;;;;;5110638;28;20596;-63
2021/01/08 09:56:23;;;;;;;6.47;3.57;;;2.70;90.20;;;;;;5112447;28;20189;-66
2021/01/08 09:59:15;;;;;;;6.27;2.70;;;2.70;90.20;;;;;;5108347;28;20263;-65
2021/01/08 10:01:59;;;;;;;6.43;3.10;;;2.80;90.10;;;;;;5110149;28;20177;-63
2021/01/08 10:04:28;;;;;;;3.73;2.40;;;2.80;87.90;;;;;;5105676;28;20196;-66
2021/01/08 10:07:02;;;;;;;3.60;2.17;;;2.80;88.40;;;;;;5103750;28;21738;-64
2021/01/08 10:09:53;;;;;;;6.20;3.20;;;2.80;88.50;;;;;;5106078;28;20259;-65
2021/01/08 10:12:19;;;;;;;4.80;2.33;;;2.80;88.80;;;;;;5108524;28;20234;-68
2021/01/08 10:14:46;;;;;;;2.23;1.17;;;2.90;87.70;;;;;;5093408;23;20224;-66
2021/01/08 10:17:18;;;;;;;7.27;3.40;;;3.00;88.10;;;;;;5087021;28;20238;-68
2021/01/08 10:19:46;;;;;;;5.80;3.50;;;3.10;87.40;;;;;;5120736;22;20236;-68
2021/01/08 10:22:17;;;;;;;5.23;2.03;;;3.10;86.20;;;;;;5103624;23;20259;-64
2021/01/08 10:24:43;;;;;;;4.77;2.00;;;3.10;85.30;;;;;;5079787;28;20644;-68
2021/01/08 10:27:09;;;;;;;5.77;3.63;;;3.20;87.00;;;;;;5216602;22;20228;-68
2021/01/08 10:29:35;;;;;;;8.07;2.87;;;;;;;;;;5454361;22;20353;-69
2021/01/08 10:32:13;;;;;;;7.73;3.80;;;3.10;84.90;;;;;;5186763;22;20244;-69
2021/01/08 10:37:15;;;;;;;6.57;2.50;;;3.10;83.70;;;;;;5066010;28;20229;-69
2021/01/08 10:39:41;;;;;;;3.20;1.43;;;3.10;83.90;;;;;;5184118;22;20233;-69
2021/01/08 10:42:07;;;;;;;4.70;2.37;;;3.10;85.40;;;;;;5135687;22;20680;-69
2021/01/08 10:44:32;;;;;;;6.90;3.27;;;3.30;84.20;;;;;;5251602;23;20234;-69
2021/01/08 10:46:58;;;;;;;5.87;2.50;;;;;;;;;;5104635;23;20246;-69
2021/01/08 10:49:24;;;;;;;7.13;3.47;;;3.40;83.10;;;;;;5103235;22;20619;-69
2021/01/08 10:51:49;;;;;;;7.77;3.50;;;3.50;82.30;;;;;;5038280;28;20251;-69
2021/01/08 10:54:17;;;;;;;8.10;2.87;;;3.50;82.00;;;;;;5094969;23;20231;-69
2021/01/08 10:56:44;;;;;;;5.97;3.63;;;3.60;83.00;;;;;;5052645;22;20755;-69
2021/01/08 10:59:11;;;;;;;6.53;3.37;;;;;;;;;;5062605;22;20579;-69
2021/01/08 11:01:44;;;;;;;7.30;3.17;;;3.70;80.20;;;;;;5033674;28;20255;-69
2021/01/08 11:04:10;;;;;;;4.83;2.90;;;3.50;80.70;;;;;;5301057;23;20233;-70
2021/01/08 11:06:39;;;;;;;4.83;2.50;;;3.50;79.50;;;;;;5024755;28;20198;-66
2021/01/08 11:09:08;;;;;;;3.80;1.27;;;3.50;80.40;;;;;;5047596;23;20679;-65
2021/01/08 11:11:35;;;;;;;8.37;3.43;;;3.60;80.30;;;;;;5037891;28;20594;-65
2021/01/08 11:14:01;;;;;;;4.87;2.57;;;3.50;80.50;;;;;;5093906;23;20244;-67
2021/01/08 11:16:27;;;;;;;6.70;2.60;;;3.60;79.10;;;;;;5435493;23;20241;-67
2021/01/08 11:18:53;;;;;;;3.97;1.63;;;;;;;;;;5040960;28;20199;-67
2021/01/08 11:21:20;;;;;;;4.07;2.30;;;3.60;79.40;;;;;;5281974;23;20236;-67
2021/01/08 11:23:46;;;;;;;6.47;2.47;;;;;;;;;;5160245;22;20237;-67
2021/01/08 11:26:12;;;;;;;6.63;2.67;;;;;;;;;;5195060;22;20242;-67
2021/01/08 11:28:38;;;;;;;6.47;2.83;;;;;;;;;;5056996;23;20229;-66
2021/01/08 11:31:07;;;;;;;5.43;2.23;;;3.50;76.80;;;;;;5060964;28;20602;-67
2021/01/08 11:33:32;;;;;;;5.20;2.27;;;3.60;75.30;;;;;;5292916;23;20366;-67
2021/01/08 11:35:58;;;;;;;4.83;2.20;;;;;;;;;;5066648;23;20221;-67
2021/01/08 11:38:24;;;;;;;4.33;1.50;;;3.50;75.20;;;;;;5048203;28;20207;-67
2021/01/08 11:43:26;;;;;;;9.03;2.83;;;;;;;;;;5232609;22;20672;-67
2021/01/08 11:45:51;;;;;;;5.70;3.37;;;3.80;76.90;;;;;;5153077;22;20243;-67
2021/01/08 11:48:17;;;;;;;6.03;2.60;;;3.70;76.10;;;;;;5087035;22;20328;-67
2021/01/08 11:50:44;;;;;;;6.70;3.07;;;3.60;75.20;;;;;;5063634;28;20217;-67
2021/01/08 11:53:10;;;;;;;5.47;2.47;;;;;;;;;;5130525;22;20348;-66
2021/01/08 11:55:36;;;;;;;5.30;2.50;;;;;;;;;;5048092;28;20642;-67
2021/01/08 11:58:02;;;;;;;5.87;2.63;;;3.70;75.10;;;;;;5208062;22;20256;-67
2021/01/08 12:00:28;;;;;;;5.57;2.87;;;;;;;;;;5568724;22;20745;-67
2021/01/08 12:02:53;;;;;;;4.47;2.47;;;3.90;75.00;;;;;;5043645;28;20187;-67
2021/01/08 12:05:19;;;;;;;7.53;3.00;;;;;;;;;;5038090;22;20580;-68
2021/01/08 12:07:45;;;;;;;7.70;2.83;;;3.90;74.70;;;;;;5141548;22;20700;-68
2021/01/08 12:17:58;;;;;;;6.30;2.83;;;3.90;73.50;;;;;;5621677;22;20234;-67
2021/01/08 12:20:24;;;;;;;5.27;3.00;;;;;;;;;;5180798;23;20292;-68
2021/01/08 12:22:50;;;;;;;5.63;2.80;;;;;;;;;;5026316;28;20270;-67
2021/01/08 12:25:16;;;;;;;5.27;2.30;;;4.10;73.70;;;;;;5186372;23;20230;-68
2021/01/08 12:27:41;;;;;;;5.33;2.57;;;3.90;71.40;;;;;;5049024;28;20194;-67
2021/01/08 12:30:08;;;;;;;5.10;1.73;;;;;;;;;;5172156;23;20241;-68
2021/01/08 12:32:36;;;;;;;7.67;2.37;;;3.80;71.70;;;;;;5030767;28;20650;-67
2021/01/08 12:35:02;;;;;;;6.47;2.97;;;3.80;71.90;;;;;;5317481;23;20601;-67
2021/01/08 12:40:05;;;;;;;5.37;2.40;;;3.90;71.60;;;;;;5739533;22;20356;-67
2021/01/08 12:42:31;;;;;;;5.73;2.30;;;;;;;;;;5305375;23;20275;-67
2021/01/08 12:44:57;;;;;;;5.13;2.10;;;;;;;;;;5161891;23;20334;-67
2021/01/08 12:47:22;;;;;;;4.63;2.10;;;3.70;70.00;;;;;;5356287;23;20703;-68
2021/01/08 12:49:48;;;;;;;5.10;2.07;;;;;;;;;;5357202;23;20321;-68
2021/01/08 12:57:25;;;;;;;5.73;2.57;;;;;;;;;;5832656;22;20557;-66
2021/01/08 12:59:51;;;;;;;6.33;2.63;;;3.80;71.30;;;;;;5015183;28;20236;-67
2021/01/08 13:02:17;;;;;;;4.63;1.97;;;;;;;;;;5090720;23;20243;-67
2021/01/08 13:04:43;;;;;;;7.03;2.87;;;3.70;72.10;;;;;;5050696;28;20198;-67
2021/01/08 13:07:09;;;;;;;4.67;2.00;;;;;;;;;;5318890;23;20237;-67
2021/01/08 13:12:10;;;;;;;4.70;1.83;;;;;;;;;;5255265;23;20230;-68
2021/01/08 13:14:36;;;;;;;4.03;1.37;;;3.90;70.90;;;;;;5050665;28;20383;-68
2021/01/08 13:17:02;;;;;;;4.17;1.83;;;;;;;;;;5130133;23;20241;-68
2021/01/08 13:19:28;;;;;;;3.80;1.60;;;4.00;71.50;;;;;;5033612;28;20197;-68
2021/01/08 13:21:55;;;;;;;4.97;2.30;;;4.00;71.40;;;;;;5147226;22;20760;-68
2021/01/08 13:24:21;;;;;;;3.80;1.93;;;3.90;70.90;;;;;;5139335;23;20226;-68
2021/01/08 13:26:47;;;;;;;3.73;1.93;;;4.00;70.80;;;;;;5661153;23;20767;-69
2021/01/08 13:29:15;;;;;;;3.90;2.00;;;4.10;70.40;;;;;;5626593;22;20316;-69
2021/01/08 13:31:43;;;;;;;3.40;1.90;;;4.00;70.40;;;;;;5525649;23;20245;-68
2021/01/08 13:34:08;;;;;;;4.83;2.40;;;3.90;71.00;;;;;;5260093;23;20316;-68
2021/01/08 13:36:36;;;;;;;3.87;1.90;;;;;;;;;;5048121;23;20401;-68
2021/01/08 13:39:04;;;;;;;4.97;2.07;;;4.00;70.80;;;;;;5052076;28;20630;-67
2021/01/08 13:41:30;;;;;;;3.40;1.87;;;3.90;71.40;;;;;;5168854;23;20226;-68
2021/01/08 13:51:43;;;;;;;5.63;2.33;;;4.00;70.80;;;;;;5856652;23;20326;-69